createdAt,value
2023-03-14T00:00:29.094Z,7.67
2023-03-14T00:02:55.773Z,7.75
2023-03-14T00:05:22.623Z,7.79
2023-03-14T00:07:49.090Z,7.88
2023-03-14T00:10:15.593Z,7.88
2023-03-14T00:12:42.046Z,7.72
2023-03-14T00:15:08.579Z,7.73
2023-03-14T00:17:35.087Z,7.83
2023-03-14T00:20:01.570Z,7.80
2023-03-14T00:22:28.809Z,7.73
2023-03-14T00:24:55.758Z,7.75
2023-03-14T00:27:22.246Z,7.64
2023-03-14T00:29:48.671Z,7.45
2023-03-14T00:32:15.577Z,7.61
2023-03-14T00:34:42.160Z,7.69
2023-03-14T00:37:08.591Z,7.62
2023-03-14T00:39:36.108Z,7.63
2023-03-14T00:42:02.893Z,7.65
2023-03-14T00:44:29.353Z,7.58
2023-03-14T00:46:56.199Z,7.66
2023-03-14T00:49:23.137Z,7.55
2023-03-14T00:51:49.986Z,7.57
2023-03-14T00:54:16.526Z,7.42
2023-03-14T00:56:42.926Z,7.40
2023-03-14T00:59:09.431Z,7.32
2023-03-14T01:01:35.924Z,7.39
2023-03-14T01:04:02.451Z,7.37
2023-03-14T01:06:28.923Z,7.40
2023-03-14T01:08:55.340Z,7.45
2023-03-14T01:11:21.931Z,7.40
2023-03-14T01:13:48.404Z,7.31
2023-03-14T01:16:14.976Z,7.18
2023-03-14T01:18:41.534Z,7.18
2023-03-14T01:21:08.446Z,7.29
2023-03-14T01:23:35.051Z,7.31
2023-03-14T01:26:03.800Z,7.16
2023-03-14T01:28:30.420Z,7.08
2023-03-14T01:30:58.711Z,7.11
2023-03-14T01:33:25.279Z,7.11
2023-03-14T01:35:52.082Z,7.17
2023-03-14T01:38:18.697Z,7.19
2023-03-14T01:40:45.230Z,7.19
2023-03-14T01:43:11.786Z,7.22
2023-03-14T01:45:38.285Z,7.16
2023-03-14T01:48:04.871Z,7.10
2023-03-14T01:50:31.286Z,7.18
2023-03-14T01:52:58.340Z,7.01
2023-03-14T01:55:24.898Z,7.06
2023-03-14T01:57:51.320Z,7.12
2023-03-14T02:00:17.869Z,7.06
2023-03-14T02:02:44.798Z,6.90
2023-03-14T02:05:11.249Z,6.91
2023-03-14T02:07:37.959Z,6.95
2023-03-14T02:10:04.440Z,7.02
2023-03-14T02:12:30.901Z,6.97
2023-03-14T02:14:57.504Z,6.93
2023-03-14T02:17:23.998Z,6.96
2023-03-14T02:19:50.406Z,6.94
2023-03-14T02:22:16.870Z,6.95
2023-03-14T02:24:43.734Z,7.00
2023-03-14T02:27:10.281Z,7.02
2023-03-14T02:29:36.732Z,7.01
2023-03-14T02:32:03.346Z,6.40
2023-03-14T02:34:29.908Z,6.59
2023-03-14T02:36:56.336Z,6.78
2023-03-14T02:39:22.768Z,6.74
2023-03-14T02:41:49.245Z,6.68
2023-03-14T02:44:15.796Z,6.90
2023-03-14T02:46:43.650Z,6.56
2023-03-14T02:49:10.086Z,6.36
2023-03-14T02:51:36.632Z,6.33
2023-03-14T02:54:03.027Z,6.47
2023-03-14T02:56:29.611Z,6.60
2023-03-14T02:58:57.133Z,6.56
2023-03-14T03:01:23.692Z,6.61
2023-03-14T03:03:50.233Z,6.82
2023-03-14T03:06:17.730Z,6.64
2023-03-14T03:08:45.401Z,6.57
2023-03-14T03:11:11.859Z,6.82
2023-03-14T03:13:39.448Z,5.98
2023-03-14T03:16:06.188Z,6.09
2023-03-14T03:18:32.800Z,6.00
2023-03-14T03:20:59.317Z,5.99
2023-03-14T03:23:25.844Z,6.43
2023-03-14T03:25:52.469Z,6.35
2023-03-14T03:28:19.496Z,6.47
2023-03-14T03:30:46.005Z,6.52
2023-03-14T03:33:12.707Z,6.28
2023-03-14T03:35:39.123Z,6.42
2023-03-14T03:38:05.890Z,6.34
2023-03-14T03:40:32.387Z,6.42
2023-03-14T03:43:00.214Z,6.55
2023-03-14T03:45:26.668Z,6.54
2023-03-14T03:47:53.207Z,6.44
2023-03-14T03:50:19.642Z,6.57
2023-03-14T03:52:46.068Z,6.80
2023-03-14T03:55:12.628Z,6.67
2023-03-14T03:57:39.054Z,6.41
2023-03-14T04:00:05.526Z,6.15
2023-03-14T04:02:36.941Z,6.38
2023-03-14T04:05:03.592Z,6.44
2023-03-14T04:07:30.704Z,6.63
2023-03-14T04:09:57.217Z,6.54
2023-03-14T04:12:24.233Z,6.51
2023-03-14T04:14:50.971Z,6.51
2023-03-14T04:17:17.520Z,6.37
2023-03-14T04:19:44.053Z,6.59
2023-03-14T04:22:11.721Z,6.47
2023-03-14T04:24:39.047Z,6.62
2023-03-14T04:27:05.768Z,6.39
2023-03-14T04:29:32.268Z,6.23
2023-03-14T04:31:58.769Z,6.60
2023-03-14T04:34:26.286Z,6.56
2023-03-14T04:36:52.722Z,6.28
2023-03-14T04:39:19.298Z,6.48
2023-03-14T04:41:45.880Z,6.35
2023-03-14T04:44:12.399Z,6.69
2023-03-14T04:46:39.161Z,6.75
2023-03-14T04:49:05.678Z,6.71
2023-03-14T04:51:32.116Z,6.99
2023-03-14T04:53:58.587Z,6.77
2023-03-14T04:56:25.128Z,7.00
2023-03-14T04:58:54.630Z,7.05
2023-03-14T05:01:21.804Z,7.06
2023-03-14T05:03:48.998Z,6.89
2023-03-14T05:06:15.499Z,6.99
2023-03-14T05:08:49.558Z,7.24
2023-03-14T05:11:16.047Z,7.08
2023-03-14T05:13:42.527Z,7.32
2023-03-14T05:16:09.074Z,7.34
2023-03-14T05:18:35.722Z,7.47
2023-03-14T05:21:02.343Z,7.57
2023-03-14T05:23:30.052Z,7.45
2023-03-14T05:25:57.550Z,7.63
2023-03-14T05:28:24.318Z,7.54
2023-03-14T05:30:50.834Z,7.50
2023-03-14T05:33:17.497Z,7.62
2023-03-14T05:35:44.077Z,7.77
2023-03-14T05:38:10.668Z,7.88
2023-03-14T05:40:37.831Z,7.78
2023-03-14T05:43:07.367Z,7.73
2023-03-14T05:45:36.829Z,7.98
2023-03-14T05:48:05.631Z,8.03
2023-03-14T05:50:32.937Z,8.05
2023-03-14T05:52:59.333Z,8.03
2023-03-14T05:55:25.747Z,8.12
2023-03-14T05:57:52.378Z,8.02
2023-03-14T06:00:19.081Z,8.08
2023-03-14T06:02:45.701Z,7.93
2023-03-14T06:05:13.220Z,8.07
2023-03-14T06:07:39.656Z,8.25
2023-03-14T06:10:06.177Z,7.88
2023-03-14T06:12:32.736Z,7.93
2023-03-14T06:14:59.187Z,8.12
2023-03-14T06:17:26.036Z,8.25
2023-03-14T06:19:52.582Z,7.88
2023-03-14T06:22:19.000Z,8.04
2023-03-14T06:24:45.599Z,8.17
2023-03-14T06:27:12.085Z,8.30
2023-03-14T06:29:38.697Z,8.48
2023-03-14T06:32:05.334Z,8.49
2023-03-14T06:34:31.972Z,8.59
2023-03-14T06:36:59.409Z,8.47
2023-03-14T06:39:25.996Z,8.41
2023-03-14T06:41:52.420Z,8.38
2023-03-14T06:44:19.424Z,8.28
2023-03-14T06:46:45.846Z,8.29
2023-03-14T06:49:12.618Z,8.53
2023-03-14T06:51:39.143Z,8.96
2023-03-14T06:54:05.569Z,9.21
2023-03-14T06:56:32.146Z,9.53
2023-03-14T07:01:46.812Z,9.99
2023-03-14T07:04:13.279Z,10.08
2023-03-14T07:06:39.876Z,10.11
2023-03-14T07:09:06.521Z,10.12
2023-03-14T07:11:33.175Z,9.87
2023-03-14T07:13:59.706Z,9.89
2023-03-14T07:16:26.295Z,9.86
2023-03-14T07:18:52.876Z,9.60
2023-03-14T07:21:19.528Z,9.75
2023-03-14T07:23:45.979Z,9.64
2023-03-14T07:26:12.459Z,9.69
2023-03-14T07:28:39.021Z,9.47
2023-03-14T07:31:05.726Z,9.36
2023-03-14T07:33:32.213Z,9.43
2023-03-14T07:35:58.784Z,9.35
2023-03-14T07:38:25.299Z,9.34
2023-03-14T07:40:51.787Z,9.09
2023-03-14T07:43:18.222Z,9.11
2023-03-14T07:45:45.175Z,9.42
2023-03-14T07:48:12.293Z,9.49
2023-03-14T07:50:38.845Z,9.59
2023-03-14T07:53:05.437Z,9.55
2023-03-14T07:55:31.785Z,9.49
2023-03-14T07:57:58.341Z,9.68
2023-03-14T08:00:25.271Z,9.71
2023-03-14T08:02:51.928Z,9.37
2023-03-14T08:05:18.706Z,9.64
2023-03-14T08:07:45.444Z,9.66
2023-03-14T08:10:11.963Z,9.76
2023-03-14T08:12:38.499Z,9.62
2023-03-14T08:15:05.392Z,9.80
2023-03-14T08:17:31.849Z,9.71
2023-03-14T08:19:58.375Z,9.80
2023-03-14T08:22:24.915Z,9.74
2023-03-14T08:24:53.305Z,9.63
2023-03-14T08:27:19.765Z,9.57
2023-03-14T08:29:46.264Z,9.63
2023-03-14T08:32:12.963Z,9.69
2023-03-14T08:34:40.244Z,9.67
2023-03-14T08:37:16.293Z,9.60
2023-03-14T08:39:51.807Z,9.61
2023-03-14T08:42:18.271Z,9.68
2023-03-14T08:44:48.553Z,9.74
2023-03-14T08:47:15.533Z,9.69
2023-03-14T08:49:42.674Z,9.76
2023-03-14T08:52:09.192Z,9.91
2023-03-14T08:54:35.605Z,9.90
2023-03-14T08:57:02.388Z,9.80
2023-03-14T08:59:28.882Z,9.79
2023-03-14T09:01:55.358Z,9.82
2023-03-14T09:04:21.886Z,9.95
2023-03-14T09:06:48.460Z,9.95
2023-03-14T09:09:14.919Z,10.03
2023-03-14T09:11:41.381Z,10.02
2023-03-14T09:14:09.246Z,10.04
2023-03-14T09:16:35.777Z,10.10
2023-03-14T09:19:02.324Z,9.88
2023-03-14T09:21:28.922Z,9.94
2023-03-14T09:23:55.401Z,9.91
2023-03-14T09:26:21.876Z,10.09
2023-03-14T09:28:48.363Z,10.08
2023-03-14T09:31:15.186Z,10.03
2023-03-14T09:33:41.725Z,9.91
2023-03-14T09:36:08.210Z,9.82
2023-03-14T09:38:34.740Z,9.85
2023-03-14T09:41:01.157Z,9.91
2023-03-14T09:43:27.622Z,9.90
2023-03-14T09:45:54.352Z,9.70
2023-03-14T09:48:20.854Z,9.82
2023-03-14T09:50:47.599Z,9.84
2023-03-14T09:53:14.093Z,9.88
2023-03-14T09:55:41.093Z,9.92
2023-03-14T09:58:07.579Z,9.95
2023-03-14T10:00:34.204Z,9.91
2023-03-14T10:03:01.118Z,9.87
2023-03-14T10:05:28.274Z,9.94
2023-03-14T10:07:54.772Z,10.11
2023-03-14T10:10:21.248Z,10.08
2023-03-14T10:12:47.803Z,10.09
2023-03-14T10:15:15.305Z,10.15
2023-03-14T10:17:41.979Z,10.10
2023-03-14T10:20:08.681Z,10.01
2023-03-14T10:22:35.134Z,10.08
2023-03-14T10:25:02.562Z,9.90
2023-03-14T10:27:29.052Z,10.00
2023-03-14T10:29:57.058Z,9.91
2023-03-14T10:32:25.243Z,10.17
2023-03-14T10:34:51.723Z,10.30
2023-03-14T10:37:18.417Z,10.11
2023-03-14T10:39:44.983Z,9.93
2023-03-14T10:42:11.479Z,9.98
2023-03-14T10:44:38.151Z,10.03
2023-03-14T10:47:04.650Z,9.80
2023-03-14T10:49:31.059Z,8.94
2023-03-14T10:51:57.742Z,8.94
2023-03-14T10:54:24.277Z,8.87
2023-03-14T10:56:50.747Z,8.98
2023-03-14T10:59:17.524Z,9.12
2023-03-14T11:01:44.270Z,9.16
2023-03-14T11:04:10.917Z,8.65
2023-03-14T11:06:37.934Z,8.30
2023-03-14T11:09:04.440Z,8.57
2023-03-14T11:11:30.906Z,8.91
2023-03-14T11:13:57.497Z,8.02
2023-03-14T11:16:24.126Z,8.59
2023-03-14T11:18:51.087Z,8.60
2023-03-14T11:21:17.502Z,8.49
2023-03-14T11:23:44.090Z,8.27
2023-03-14T11:26:10.722Z,8.58
2023-03-14T11:28:37.312Z,7.81
2023-03-14T11:31:03.847Z,8.30
2023-03-14T11:33:30.431Z,8.38
2023-03-14T11:35:56.883Z,8.27
2023-03-14T11:38:23.401Z,8.27
2023-03-14T11:40:51.442Z,7.99
2023-03-14T11:43:17.879Z,7.93
2023-03-14T11:45:44.608Z,7.42
2023-03-14T11:48:11.092Z,7.70
2023-03-14T11:50:37.763Z,7.70
2023-03-14T11:53:04.327Z,7.71
2023-03-14T11:55:31.121Z,7.75
2023-03-14T11:57:57.744Z,7.77
2023-03-14T12:00:24.403Z,7.90
2023-03-14T12:02:51.047Z,7.98
2023-03-14T12:05:17.576Z,8.09
2023-03-14T12:07:44.769Z,7.66
2023-03-14T12:10:11.218Z,8.07
2023-03-14T12:12:37.786Z,7.96
2023-03-14T12:15:04.330Z,8.02
2023-03-14T12:17:31.313Z,8.14
2023-03-14T12:19:57.865Z,7.86
2023-03-14T12:22:24.502Z,7.90
2023-03-14T12:24:51.429Z,8.03
2023-03-14T12:27:17.916Z,8.01
2023-03-14T12:29:44.645Z,7.95
2023-03-14T12:32:11.131Z,7.89
2023-03-14T12:34:37.794Z,7.82
2023-03-14T12:37:04.316Z,8.10
2023-03-14T12:39:31.045Z,8.06
2023-03-14T12:41:57.656Z,8.18
2023-03-14T12:44:24.406Z,8.25
2023-03-14T12:46:50.852Z,8.39
2023-03-14T12:49:17.304Z,8.30
2023-03-14T12:51:43.755Z,7.90
2023-03-14T12:54:10.363Z,7.89
2023-03-14T12:56:39.148Z,8.04
2023-03-14T12:59:05.657Z,8.08
2023-03-14T13:01:32.126Z,7.97
2023-03-14T13:03:58.798Z,8.13
2023-03-14T13:06:27.522Z,8.05
2023-03-14T13:08:54.224Z,7.65
2023-03-14T13:11:20.699Z,7.24
2023-03-14T13:13:47.674Z,7.22
2023-03-14T13:16:14.501Z,7.50
2023-03-14T13:18:41.347Z,7.22
2023-03-14T13:21:07.804Z,7.43
2023-03-14T13:23:36.904Z,7.68
2023-03-14T13:26:03.649Z,7.42
2023-03-14T13:28:30.613Z,7.13
2023-03-14T13:30:57.378Z,7.15
2023-03-14T13:33:24.007Z,7.19
2023-03-14T13:35:52.446Z,7.47
2023-03-14T13:38:18.939Z,7.29
2023-03-14T13:40:45.548Z,7.61
2023-03-14T13:43:12.237Z,6.84
2023-03-14T13:45:38.714Z,7.25
2023-03-14T13:48:05.340Z,7.21
2023-03-14T13:50:31.882Z,7.63
2023-03-14T13:53:01.441Z,7.62
2023-03-14T13:55:27.920Z,7.52
2023-03-14T13:57:55.516Z,7.70
2023-03-14T14:00:22.271Z,8.05
2023-03-14T14:02:48.731Z,7.84
2023-03-14T14:05:16.219Z,7.40
2023-03-14T14:07:42.719Z,7.60
2023-03-14T14:10:09.185Z,7.92
2023-03-14T14:12:35.597Z,7.65
2023-03-14T14:15:02.670Z,8.06
2023-03-14T14:17:29.160Z,8.22
2023-03-14T14:19:55.706Z,8.50
2023-03-14T14:22:22.202Z,8.46
2023-03-14T14:24:48.981Z,8.59
2023-03-14T14:27:15.482Z,8.26
2023-03-14T14:29:42.015Z,8.57
2023-03-14T14:32:08.583Z,8.80
2023-03-14T14:34:35.173Z,8.67
2023-03-14T14:37:02.032Z,8.37
2023-03-14T14:39:29.935Z,8.79
2023-03-14T14:41:59.230Z,8.36
2023-03-14T14:44:25.827Z,8.85
2023-03-14T14:46:53.356Z,9.03
2023-03-14T14:49:20.967Z,9.14
2023-03-14T14:51:49.772Z,8.96
2023-03-14T14:54:16.316Z,9.26
2023-03-14T14:56:42.759Z,9.34
2023-03-14T14:59:09.244Z,9.34
2023-03-14T15:01:35.976Z,9.12
2023-03-14T15:04:02.503Z,9.14
2023-03-14T15:06:29.101Z,9.30
2023-03-14T15:08:55.597Z,9.34
2023-03-14T15:11:22.492Z,9.27
2023-03-14T15:13:50.214Z,9.32
2023-03-14T15:16:17.733Z,9.31
2023-03-14T15:18:44.597Z,9.51
2023-03-14T15:21:11.134Z,9.32
2023-03-14T15:23:37.649Z,9.21
2023-03-14T15:26:04.324Z,9.33
2023-03-14T15:28:30.900Z,9.33
2023-03-14T15:30:57.636Z,9.31
2023-03-14T15:33:24.405Z,9.32
2023-03-14T15:35:50.986Z,9.28
2023-03-14T15:38:17.764Z,9.22
2023-03-14T15:40:44.227Z,9.29
2023-03-14T15:43:11.093Z,9.20
2023-03-14T15:45:37.557Z,9.33
2023-03-14T15:48:04.268Z,9.44
2023-03-14T15:50:32.099Z,9.49
2023-03-14T15:52:58.625Z,9.38
2023-03-14T15:55:25.575Z,9.38
2023-03-14T15:57:53.528Z,9.49
2023-03-14T16:00:20.652Z,9.56
2023-03-14T16:02:47.090Z,9.56
2023-03-14T16:05:13.600Z,9.62
2023-03-14T16:07:40.083Z,9.56
2023-03-14T16:10:06.569Z,9.46
2023-03-14T16:12:33.376Z,9.34
2023-03-14T16:14:59.852Z,9.29
2023-03-14T16:17:26.422Z,9.24
2023-03-14T16:19:53.864Z,9.27
2023-03-14T16:22:20.443Z,9.21
2023-03-14T16:24:47.420Z,9.22
2023-03-14T16:27:14.261Z,8.97
2023-03-14T16:29:41.047Z,9.11
2023-03-14T16:32:07.678Z,9.22
2023-03-14T16:34:34.232Z,9.32
2023-03-14T16:37:02.509Z,9.44
2023-03-14T16:39:29.116Z,9.31
2023-03-14T16:41:59.031Z,9.06
2023-03-14T16:44:26.600Z,8.97
2023-03-14T16:46:53.084Z,9.03
2023-03-14T16:49:19.783Z,9.10
2023-03-14T16:51:46.396Z,8.87
2023-03-14T16:54:13.083Z,8.93
2023-03-14T16:56:39.669Z,9.03
2023-03-14T16:59:06.626Z,9.03
2023-03-14T17:01:33.326Z,9.04
2023-03-14T17:04:00.194Z,9.04
2023-03-14T17:06:27.553Z,9.01
2023-03-14T17:08:54.171Z,8.92
2023-03-14T17:11:20.711Z,8.93
2023-03-14T17:13:50.602Z,8.87
2023-03-14T17:16:17.625Z,8.90
2023-03-14T17:18:44.101Z,8.93
2023-03-14T17:21:11.036Z,8.98
2023-03-14T17:23:37.749Z,9.02
2023-03-14T17:26:04.688Z,8.98
2023-03-14T17:28:31.933Z,8.83
2023-03-14T17:30:58.617Z,8.82
2023-03-14T17:33:25.286Z,8.82
2023-03-14T17:35:51.917Z,8.91
2023-03-14T17:38:19.168Z,8.92
2023-03-14T17:40:48.441Z,8.80
2023-03-14T17:43:15.426Z,8.66
2023-03-14T17:45:42.315Z,8.71
2023-03-14T17:48:08.852Z,8.43
2023-03-14T17:50:39.031Z,8.42
2023-03-14T17:53:05.547Z,8.44
2023-03-14T17:55:35.377Z,8.61
2023-03-14T17:58:02.859Z,8.67
2023-03-14T18:00:30.190Z,8.94
2023-03-14T18:02:58.991Z,9.15
2023-03-14T18:05:25.817Z,9.43
2023-03-14T18:07:52.539Z,9.70
2023-03-14T18:10:19.612Z,9.86
2023-03-14T18:12:48.400Z,10.05
2023-03-14T18:15:16.490Z,10.16
2023-03-14T18:17:43.549Z,10.26
2023-03-14T18:20:10.142Z,10.07
2023-03-14T18:22:37.328Z,9.79
2023-03-14T18:25:05.514Z,9.75
2023-03-14T18:27:34.734Z,9.70
2023-03-14T18:30:02.487Z,9.70
2023-03-14T18:32:34.909Z,9.46
2023-03-14T18:35:12.224Z,8.80
2023-03-14T18:37:46.200Z,8.49
2023-03-14T18:40:13.389Z,8.81
2023-03-14T18:42:40.023Z,8.59
2023-03-14T18:45:07.491Z,8.21
2023-03-14T18:47:34.120Z,8.06
2023-03-14T18:50:02.192Z,7.78
2023-03-14T18:52:29.343Z,7.83
2023-03-14T18:54:56.513Z,7.34
2023-03-14T18:57:23.971Z,7.46
2023-03-14T18:59:51.170Z,7.03
2023-03-14T19:02:18.754Z,7.28
2023-03-14T19:04:46.199Z,7.05
2023-03-14T19:07:12.838Z,6.48
2023-03-14T19:09:45.230Z,7.07
2023-03-14T19:12:12.474Z,7.34
2023-03-14T19:14:43.125Z,6.93
2023-03-14T19:17:12.665Z,6.86
2023-03-14T19:19:39.355Z,6.78
2023-03-14T19:22:06.281Z,6.82
2023-03-14T19:24:33.531Z,6.23
2023-03-14T19:27:02.141Z,6.55
2023-03-14T19:29:29.345Z,6.57
2023-03-14T19:31:56.640Z,5.90
2023-03-14T19:34:24.500Z,6.15
2023-03-14T19:36:53.931Z,5.74
2023-03-14T19:39:21.105Z,5.46
2023-03-14T19:41:48.532Z,5.94
2023-03-14T19:44:29.211Z,5.69
2023-03-14T19:46:57.153Z,5.91
2023-03-14T19:49:24.700Z,5.93
2023-03-14T19:51:52.003Z,5.94
2023-03-14T19:54:20.495Z,5.86
2023-03-14T19:56:47.840Z,6.01
2023-03-14T19:59:16.285Z,5.86
2023-03-14T20:01:49.367Z,5.77
2023-03-14T20:04:17.024Z,5.70
2023-03-14T20:06:44.170Z,6.24
2023-03-14T20:09:11.332Z,5.90
2023-03-14T20:11:39.227Z,6.01
2023-03-14T20:14:06.042Z,5.86
2023-03-14T20:16:35.219Z,5.94
2023-03-14T20:19:05.716Z,5.76
2023-03-14T20:21:35.651Z,5.95
2023-03-14T20:24:07.134Z,5.97
2023-03-14T20:26:33.982Z,5.59
2023-03-14T20:29:00.789Z,5.48
2023-03-14T20:31:28.480Z,5.21
2023-03-14T20:33:55.671Z,5.76
2023-03-14T20:36:22.995Z,5.89
2023-03-14T20:38:51.003Z,5.50
2023-03-14T20:41:18.827Z,5.61
2023-03-14T20:43:46.539Z,5.66
2023-03-14T20:46:13.432Z,5.56
2023-03-14T20:48:43.966Z,5.27
2023-03-14T20:51:10.904Z,5.62
2023-03-14T20:53:38.128Z,5.44
2023-03-14T20:56:05.832Z,5.28
2023-03-14T20:58:33.386Z,5.09
2023-03-14T21:01:00.203Z,5.08
2023-03-14T21:06:31.443Z,5.51
2023-03-14T21:08:58.791Z,4.79
2023-03-14T21:11:25.583Z,5.40
2023-03-14T21:13:52.235Z,5.48
2023-03-14T21:16:19.126Z,5.97
2023-03-14T21:18:45.845Z,5.41
2023-03-14T21:21:12.935Z,5.58
2023-03-14T21:23:39.632Z,5.34
2023-03-14T21:26:06.139Z,5.64
2023-03-14T21:28:32.509Z,5.48
2023-03-14T21:30:59.181Z,5.29
2023-03-14T21:33:25.634Z,5.07
2023-03-14T21:35:54.180Z,5.43
2023-03-14T21:38:20.543Z,5.73
2023-03-14T21:40:47.072Z,5.45
2023-03-14T21:43:13.487Z,5.61
2023-03-14T21:45:39.917Z,5.48
2023-03-14T21:48:06.319Z,5.57
2023-03-14T21:50:32.678Z,4.93
2023-03-14T21:52:59.132Z,5.00
2023-03-14T21:55:26.008Z,5.15
2023-03-14T21:57:52.589Z,4.84
2023-03-14T22:00:18.966Z,5.48
2023-03-14T22:03:03.265Z,5.31
2023-03-14T22:05:32.054Z,4.98
2023-03-14T22:07:58.750Z,4.95
2023-03-14T22:10:25.099Z,4.84
2023-03-14T22:12:51.757Z,4.88
2023-03-14T22:15:18.851Z,5.11
2023-03-14T22:17:45.296Z,5.16
2023-03-14T22:20:11.919Z,5.63
2023-03-14T22:22:38.406Z,5.25
2023-03-14T22:25:04.949Z,5.40
2023-03-14T22:27:31.404Z,5.60
2023-03-14T22:29:59.513Z,4.91
2023-03-14T22:32:25.981Z,4.80
2023-03-14T22:37:41.400Z,5.11
2023-03-14T22:40:08.076Z,4.83
2023-03-14T22:42:35.117Z,5.22
2023-03-14T22:45:01.769Z,5.62
2023-03-14T22:47:28.301Z,5.40
2023-03-14T22:49:57.387Z,4.92
2023-03-14T22:52:24.049Z,4.57
2023-03-14T22:54:50.714Z,5.06
2023-03-14T22:57:20.047Z,5.11
2023-03-14T22:59:46.890Z,4.59
2023-03-14T23:02:13.582Z,4.29
2023-03-14T23:04:39.959Z,4.98
2023-03-14T23:07:06.330Z,5.43
2023-03-14T23:09:32.813Z,5.48
2023-03-14T23:11:59.257Z,5.67
2023-03-14T23:14:25.933Z,5.76
2023-03-14T23:16:52.570Z,5.59
2023-03-14T23:19:19.093Z,4.55
2023-03-14T23:21:45.518Z,4.55
2023-03-14T23:24:11.953Z,5.06
2023-03-14T23:26:40.805Z,5.09
2023-03-14T23:29:07.522Z,4.80
2023-03-14T23:31:34.057Z,5.28
2023-03-14T23:34:00.524Z,5.26
2023-03-14T23:36:27.051Z,5.02
2023-03-14T23:38:53.934Z,5.27
2023-03-14T23:41:22.620Z,5.34
2023-03-14T23:43:49.086Z,4.64
2023-03-14T23:46:15.539Z,4.89
2023-03-14T23:48:42.381Z,4.96
2023-03-14T23:51:09.020Z,5.42
2023-03-14T23:53:35.438Z,4.96
2023-03-14T23:56:04.981Z,4.66
2023-03-14T23:58:33.596Z,5.01
